Time;durP1;ratioP1;P1;durP2;ratioP2;P2;SDS_P1;SDS_P2;PMS_P1;PMS_P2;Temp;Humidity;BMP_temperature;BMP_pressure;BME280_temperature;BME280_humidity;BME280_pressure;Samples;Min_cycle;Max_cycle;Signal;HPM_P1;HPM_P2
2022/08/22 00:00:12;;;;;;;3.83;2.47;;;16.40;99.90;;;;;;5049381;28;20448;-48
2022/08/22 00:02:51;;;;;;;3.43;2.50;;;16.30;99.90;;;;;;5048881;28;20463;-48
2022/08/22 00:05:30;;;;;;;2.50;2.13;;;16.20;99.90;;;;;;5049832;28;20957;-48
2022/08/22 00:08:09;;;;;;;3.37;2.30;;;16.30;99.90;;;;;;5050106;28;20481;-49
2022/08/22 00:10:51;;;;;;;3.87;2.80;;;16.20;99.90;;;;;;5049304;28;20429;-49
2022/08/22 00:13:25;;;;;;;3.17;2.87;;;16.10;99.90;;;;;;5049608;28;20483;-48
2022/08/22 00:16:00;;;;;;;2.70;2.47;;;16.30;99.90;;;;;;5050100;28;20547;-48
2022/08/22 00:18:33;;;;;;;2.80;2.20;;;16.20;99.90;;;;;;5049906;28;20441;-50
2022/08/22 00:21:08;;;;;;;2.90;2.23;;;16.20;99.90;;;;;;5049180;28;20506;-49
2022/08/22 00:23:41;;;;;;;3.40;2.83;;;16.10;99.90;;;;;;5049596;28;20444;-49
2022/08/22 00:26:20;;;;;;;5.27;2.80;;;16.00;99.90;;;;;;5048665;28;20532;-49
2022/08/22 00:28:52;;;;;;;4.25;2.60;;;16.30;99.90;;;;;;5049157;28;20484;-50
2022/08/22 00:31:26;;;;;;;3.58;2.40;;;16.20;99.90;;;;;;5049516;28;20199;-48
2022/08/22 00:34:00;;;;;;;4.10;3.00;;;16.40;99.90;;;;;;5049658;28;20219;-49
2022/08/22 00:36:35;;;;;;;3.17;2.80;;;16.40;99.90;;;;;;5049608;28;20464;-49
2022/08/22 00:39:11;;;;;;;3.20;2.60;;;16.30;99.90;;;;;;5048986;28;20459;-48
2022/08/22 00:42:04;;;;;;;4.15;2.42;;;16.20;99.90;;;;;;5049469;28;20472;-48
2022/08/22 00:45:11;;;;;;;4.50;2.73;;;16.20;99.90;;;;;;5049512;28;20217;-49
2022/08/22 00:47:57;;;;;;;2.97;2.60;;;16.00;99.90;;;;;;5028748;28;20778;-48
2022/08/22 00:50:55;;;;;;;3.20;2.60;;;16.20;99.90;;;;;;5048799;28;20445;-48
2022/08/22 00:53:41;;;;;;;2.40;2.20;;;16.40;99.90;;;;;;5032300;28;20677;-49
2022/08/22 00:56:50;;;;;;;2.63;2.20;;;16.10;99.90;;;;;;5049307;28;21017;-48
2022/08/22 00:59:34;;;;;;;2.83;2.43;;;15.80;99.90;;;;;;5048779;28;20550;-48
2022/08/22 01:02:13;;;;;;;3.53;2.60;;;15.80;99.90;;;;;;5049111;28;20437;-48
2022/08/22 01:05:02;;;;;;;2.83;2.53;;;15.80;99.90;;;;;;5049403;28;20484;-51
2022/08/22 01:07:47;;;;;;;2.70;2.50;;;15.50;99.90;;;;;;5049225;28;20441;-49
2022/08/22 01:10:44;;;;;;;5.15;3.08;;;15.60;99.90;;;;;;5048630;28;20452;-48
2022/08/22 01:13:36;;;;;;;12.53;3.03;;;15.60;99.90;;;;;;5049512;28;20233;-49
2022/08/22 01:16:17;;;;;;;3.20;2.63;;;15.60;99.90;;;;;;5053066;28;20534;-48
2022/08/22 01:19:07;;;;;;;2.90;2.60;;;15.60;99.90;;;;;;5052529;28;20802;-48
2022/08/22 01:22:03;;;;;;;4.07;2.47;;;15.70;99.90;;;;;;5052893;28;20430;-48
2022/08/22 01:25:18;;;;;;;3.43;2.50;;;15.60;99.90;;;;;;5052744;28;20461;-48
2022/08/22 01:28:25;;;;;;;3.83;2.93;;;15.60;99.90;;;;;;5051935;28;21022;-48
2022/08/22 01:31:25;;;;;;;3.00;2.43;;;15.80;99.90;;;;;;5052080;28;20649;-49
2022/08/22 01:34:22;;;;;;;3.83;2.60;;;15.80;99.90;;;;;;5052645;28;20484;-48
2022/08/22 01:37:06;;;;;;;3.07;2.47;;;15.70;99.90;;;;;;5051567;28;20485;-48
2022/08/22 01:40:07;;;;;;;3.57;2.50;;;15.80;99.90;;;;;;5051857;28;20443;-48
2022/08/22 01:43:01;;;;;;;3.00;2.70;;;15.70;99.90;;;;;;5052822;28;20457;-49
2022/08/22 01:46:04;;;;;;;3.13;2.50;;;15.50;99.90;;;;;;5050815;28;20487;-48
2022/08/22 01:48:38;;;;;;;6.00;2.57;;;15.40;99.90;;;;;;5031149;28;20454;-48
2022/08/22 01:51:18;;;;;;;2.43;2.13;;;15.40;99.90;;;;;;5052129;28;20441;-48
2022/08/22 01:53:54;;;;;;;4.35;2.70;;;15.40;99.90;;;;;;5052432;28;20468;-48
2022/08/22 01:56:23;;;;;;;3.57;2.67;;;15.40;99.90;;;;;;5052118;28;20215;-48
2022/08/22 01:58:58;;;;;;;3.23;2.73;;;15.40;99.90;;;;;;5051946;28;20445;-48
2022/08/22 02:01:36;;;;;;;3.53;2.30;;;15.30;99.90;;;;;;5051460;28;20441;-48
2022/08/22 02:04:07;;;;;;;4.97;3.40;;;15.30;99.90;;;;;;5052239;28;20889;-48
2022/08/22 02:06:45;;;;;;;3.00;2.43;;;15.30;99.90;;;;;;5052147;28;20453;-49
2022/08/22 02:09:26;;;;;;;3.40;3.10;;;15.00;99.90;;;;;;5051210;28;20502;-49
2022/08/22 02:11:56;;;;;;;4.70;2.70;;;15.40;99.90;;;;;;5052181;28;20872;-48
2022/08/22 02:14:48;;;;;;;2.60;2.40;;;15.70;99.90;;;;;;5052059;28;20942;-48
2022/08/22 02:17:22;;;;;;;3.20;2.50;;;15.80;99.90;;;;;;5051666;28;20468;-48
2022/08/22 02:19:58;;;;;;;2.90;2.60;;;15.90;99.90;;;;;;5051151;28;20448;-48
2022/08/22 02:22:34;;;;;;;4.20;2.60;;;15.90;99.90;;;;;;5051733;28;20907;-48
2022/08/22 02:25:10;;;;;;;3.50;2.50;;;15.40;99.90;;;;;;5051078;28;20827;-48
2022/08/22 02:27:48;;;;;;;6.00;3.17;;;15.40;99.90;;;;;;5050676;28;20433;-48
2022/08/22 02:30:18;;;;;;;3.03;2.67;;;15.40;99.90;;;;;;5051132;28;20441;-50
2022/08/22 02:32:55;;;;;;;3.13;2.83;;;15.30;99.90;;;;;;5051473;28;20470;-48
2022/08/22 02:35:29;;;;;;;6.20;3.50;;;15.40;99.90;;;;;;5051564;28;20952;-48
2022/08/22 02:38:08;;;;;;;3.00;2.63;;;15.50;99.90;;;;;;5051466;28;20433;-48
2022/08/22 02:40:39;;;;;;;2.50;2.30;;;15.80;99.90;;;;;;5050658;28;20483;-48
2022/08/22 02:43:16;;;;;;;2.53;2.33;;;15.80;99.90;;;;;;5051158;28;20511;-50
2022/08/22 02:45:49;;;;;;;2.80;2.60;;;15.80;99.90;;;;;;5051831;28;20754;-48
2022/08/22 02:48:28;;;;;;;3.00;2.60;;;16.00;99.90;;;;;;5051389;28;20445;-48
2022/08/22 02:51:01;;;;;;;2.67;2.40;;;15.40;99.90;;;;;;5050458;28;20491;-49
2022/08/22 02:53:37;;;;;;;2.90;2.50;;;15.40;99.90;;;;;;5051091;28;20489;-48
2022/08/22 02:56:08;;;;;;;4.53;3.00;;;15.40;99.90;;;;;;5051047;28;20225;-49
2022/08/22 02:58:45;;;;;;;3.20;2.90;;;15.30;99.90;;;;;;5051109;28;20453;-50
2022/08/22 03:01:22;;;;;;;3.00;2.67;;;15.20;99.90;;;;;;5050346;28;20514;-49
2022/08/22 03:03:51;;;;;;;7.07;3.33;;;15.30;99.90;;;;;;5050966;28;20472;-48
2022/08/22 03:06:34;;;;;;;3.10;2.70;;;15.60;99.90;;;;;;5050842;28;20433;-48
2022/08/22 03:09:18;;;;;;;4.60;3.20;;;15.60;99.90;;;;;;5050122;28;20831;-48
2022/08/22 03:11:50;;;;;;;3.50;3.20;;;15.70;99.90;;;;;;5050807;28;20460;-49
2022/08/22 03:14:26;;;;;;;2.85;2.55;;;15.70;99.90;;;;;;5050572;28;20524;-48
2022/08/22 03:17:02;;;;;;;5.20;2.97;;;15.60;99.90;;;;;;5050702;28;20314;-49
2022/08/22 03:19:44;;;;;;;4.77;2.63;;;15.30;99.90;;;;;;5049949;28;20440;-48
2022/08/22 03:22:16;;;;;;;2.90;2.30;;;15.10;99.90;;;;;;5050298;28;20472;-50
2022/08/22 03:24:54;;;;;;;4.90;3.03;;;15.20;99.90;;;;;;5050631;28;20507;-49
2022/08/22 03:27:24;;;;;;;5.23;2.80;;;14.80;99.90;;;;;;5049508;28;20933;-49
2022/08/22 03:29:56;;;;;;;4.60;3.27;;;14.60;99.90;;;;;;5049973;28;20492;-49
2022/08/22 03:32:25;;;;;;;3.50;2.90;;;14.60;99.90;;;;;;5050349;28;20470;-50
2022/08/22 03:35:02;;;;;;;4.60;3.30;;;14.80;99.90;;;;;;5050633;28;20457;-49
2022/08/22 03:37:39;;;;;;;3.70;2.90;;;14.80;99.90;;;;;;5049381;28;21075;-48
2022/08/22 03:40:22;;;;;;;3.10;2.90;;;15.00;99.90;;;;;;5049729;28;20448;-51
2022/08/22 03:43:21;;;;;;;4.50;3.13;;;14.90;99.90;;;;;;5050266;28;20473;-48
2022/08/22 03:46:23;;;;;;;3.20;2.80;;;14.70;99.90;;;;;;5050013;28;21084;-48
2022/08/22 03:49:28;;;;;;;4.20;3.57;;;14.80;99.90;;;;;;5049390;28;21021;-49
2022/08/22 03:52:16;;;;;;;5.53;3.03;;;14.60;99.90;;;;;;5050004;28;20436;-50
2022/08/22 03:55:09;;;;;;;2.97;2.67;;;14.50;99.90;;;;;;5043427;28;20472;-48
2022/08/22 03:58:04;;;;;;;6.23;3.20;;;14.60;99.90;;;;;;5044269;28;20534;-48
2022/08/22 04:00:52;;;;;;;4.35;3.85;;;14.50;99.90;;;;;;5049192;28;20432;-50
2022/08/22 04:03:46;;;;;;;4.30;2.92;;;14.80;99.90;;;;;;5049567;28;20222;-48
2022/08/22 04:06:46;;;;;;;4.00;2.60;;;15.10;99.90;;;;;;5050068;28;20253;-48
2022/08/22 04:09:48;;;;;;;4.43;2.80;;;14.90;99.90;;;;;;5049196;28;20604;-49
2022/08/22 04:15:24;;;;;;;5.32;3.40;;;15.30;99.90;;;;;;5108193;22;20893;-49
2022/08/22 04:18:20;;;;;;;3.40;3.10;;;15.30;99.90;;;;;;5089847;28;20221;-49
2022/08/22 04:21:24;;;;;;;3.47;2.90;;;15.30;99.90;;;;;;5089179;28;20471;-51
2022/08/22 04:24:16;;;;;;;4.13;3.03;;;14.80;99.90;;;;;;5089860;28;20821;-49
2022/08/22 04:26:49;;;;;;;3.40;2.70;;;14.70;99.90;;;;;;5088850;28;20432;-51
2022/08/22 04:29:21;;;;;;;3.20;2.90;;;14.70;99.90;;;;;;5089249;28;20447;-50
2022/08/22 04:31:56;;;;;;;3.20;2.90;;;14.80;99.90;;;;;;5089668;28;20928;-49
2022/08/22 04:34:32;;;;;;;5.23;3.20;;;14.70;99.90;;;;;;5089782;28;20862;-49
2022/08/22 04:37:05;;;;;;;4.50;3.57;;;14.80;99.90;;;;;;5089748;28;20474;-49
2022/08/22 04:39:38;;;;;;;9.30;4.17;;;14.80;99.90;;;;;;5089169;28;20424;-50
2022/08/22 04:42:10;;;;;;;6.70;3.47;;;14.90;99.90;;;;;;5089772;28;20452;-50
2022/08/22 04:44:42;;;;;;;4.67;3.27;;;14.90;99.90;;;;;;5090035;28;20526;-49
2022/08/22 04:47:28;;;;;;;3.80;3.40;;;15.10;99.90;;;;;;5089716;28;20442;-49
2022/08/22 04:49:59;;;;;;;4.30;3.13;;;15.10;99.90;;;;;;5092452;28;20478;-49
2022/08/22 04:52:36;;;;;;;3.40;3.10;;;15.30;99.90;;;;;;5093660;28;20542;-50
2022/08/22 04:55:14;;;;;;;3.65;3.15;;;15.30;99.90;;;;;;5093595;28;20431;-51
2022/08/22 04:57:53;;;;;;;6.07;3.40;;;15.30;99.90;;;;;;5093497;28;20706;-49
2022/08/22 05:00:20;;;;;;;8.25;3.20;;;15.00;99.90;;;;;;5093298;28;20501;-50
2022/08/22 05:02:52;;;;;;;3.20;2.93;;;15.00;99.90;;;;;;5093004;28;20635;-50
2022/08/22 05:05:23;;;;;;;6.10;3.83;;;15.10;99.90;;;;;;5093563;28;20470;-49
2022/08/22 05:07:53;;;;;;;6.60;3.90;;;15.10;99.90;;;;;;5093416;28;20442;-49
2022/08/22 05:10:23;;;;;;;4.07;3.50;;;15.40;99.90;;;;;;5092775;28;20932;-49
2022/08/22 05:12:59;;;;;;;5.33;3.37;;;15.30;99.90;;;;;;5093170;28;20982;-49
2022/08/22 05:15:31;;;;;;;4.47;2.93;;;15.60;99.90;;;;;;5093178;28;20431;-49
2022/08/22 05:18:05;;;;;;;4.33;3.00;;;15.10;99.90;;;;;;5093133;28;21364;-50
2022/08/22 05:20:34;;;;;;;5.40;2.93;;;14.90;99.90;;;;;;5092547;28;20640;-49
2022/08/22 05:23:10;;;;;;;3.57;3.20;;;14.80;99.90;;;;;;5092975;28;20516;-50
2022/08/22 05:25:41;;;;;;;3.80;2.97;;;14.80;99.90;;;;;;5093075;28;20649;-50
2022/08/22 05:28:11;;;;;;;3.60;3.00;;;14.90;99.90;;;;;;5092956;28;20193;-49
2022/08/22 05:30:39;;;;;;;4.50;3.23;;;15.20;99.90;;;;;;5092603;28;20963;-49
2022/08/22 05:33:25;;;;;;;4.50;3.20;;;15.50;99.90;;;;;;5092777;28;20458;-49
2022/08/22 05:35:58;;;;;;;5.10;3.30;;;15.40;99.90;;;;;;5092935;28;20424;-49
2022/08/22 05:38:30;;;;;;;5.43;4.20;;;14.70;99.90;;;;;;5092550;28;21152;-49
2022/08/22 05:41:02;;;;;;;8.20;3.43;;;14.50;99.90;;;;;;5092331;28;20443;-49
2022/08/22 05:43:30;;;;;;;4.15;3.00;;;14.50;99.90;;;;;;5092744;28;20470;-49
2022/08/22 05:45:58;;;;;;;5.15;3.75;;;14.60;99.90;;;;;;5092735;28;20230;-49
2022/08/22 05:48:37;;;;;;;6.60;3.42;;;14.50;99.90;;;;;;5092882;28;20203;-49
2022/08/22 05:51:14;;;;;;;6.93;4.17;;;14.50;99.90;;;;;;5092227;28;20197;-50
2022/08/22 05:53:46;;;;;;;3.80;3.40;;;14.60;99.90;;;;;;5092602;28;20463;-50
2022/08/22 05:56:18;;;;;;;4.20;3.10;;;14.60;99.90;;;;;;5092660;28;20475;-49
2022/08/22 05:58:50;;;;;;;3.63;2.70;;;14.80;99.90;;;;;;5091663;28;20469;-49
2022/08/22 06:01:32;;;;;;;3.40;3.00;;;15.00;99.90;;;;;;5090923;28;20255;-49
2022/08/22 06:04:14;;;;;;;4.07;3.67;;;15.20;99.90;;;;;;5092527;28;20293;-49
2022/08/22 06:06:54;;;;;;;3.70;3.20;;;15.30;99.90;;;;;;5092529;28;20944;-49
2022/08/22 06:09:27;;;;;;;6.87;4.67;;;15.50;99.90;;;;;;5091648;28;20470;-51
2022/08/22 06:11:59;;;;;;;4.17;3.73;;;15.20;99.90;;;;;;5092239;28;20522;-50
2022/08/22 06:14:33;;;;;;;4.80;3.90;;;15.20;99.90;;;;;;5092014;28;20467;-50
2022/08/22 06:17:07;;;;;;;4.40;3.37;;;15.10;99.90;;;;;;5092681;28;20475;-49
2022/08/22 06:19:41;;;;;;;4.17;3.17;;;15.30;99.90;;;;;;5091953;28;20534;-49
2022/08/22 06:22:09;;;;;;;4.70;3.57;;;15.20;99.90;;;;;;5092274;28;20894;-49
2022/08/22 06:24:37;;;;;;;4.00;3.30;;;15.00;99.90;;;;;;5092774;28;20975;-49
2022/08/22 06:27:10;;;;;;;4.63;3.63;;;14.90;99.90;;;;;;5090680;28;20936;-50
2022/08/22 06:29:41;;;;;;;3.87;3.53;;;14.90;99.90;;;;;;5091687;28;20974;-50
2022/08/22 06:32:14;;;;;;;4.80;3.47;;;15.00;99.90;;;;;;5092226;28;20428;-50
2022/08/22 06:34:45;;;;;;;3.20;2.87;;;15.20;99.90;;;;;;5092138;28;20448;-52
2022/08/22 06:37:19;;;;;;;3.95;3.28;;;15.20;99.90;;;;;;5092438;28;20493;-50
2022/08/22 06:39:51;;;;;;;5.33;3.63;;;15.30;99.90;;;;;;5091575;28;20475;-48
2022/08/22 06:42:21;;;;;;;5.43;3.70;;;15.60;99.90;;;;;;5092045;28;20493;-49
2022/08/22 06:44:52;;;;;;;4.57;4.18;;;15.60;99.90;;;;;;5092150;28;20497;-49
2022/08/22 06:47:24;;;;;;;4.72;3.85;;;15.60;99.90;;;;;;5091799;28;20199;-49
2022/08/22 06:49:56;;;;;;;4.77;3.70;;;15.70;99.90;;;;;;5091360;28;20197;-49
2022/08/22 06:52:26;;;;;;;6.10;4.32;;;15.80;99.90;;;;;;5091956;28;20816;-49
2022/08/22 06:54:59;;;;;;;10.33;5.30;;;15.80;99.90;;;;;;5092307;28;20455;-50
2022/08/22 06:57:31;;;;;;;7.20;4.90;;;15.80;99.90;;;;;;5091407;28;20478;-49
2022/08/22 07:00:00;;;;;;;7.67;4.17;;;15.90;99.90;;;;;;5090577;28;20999;-51
2022/08/22 07:02:33;;;;;;;5.50;4.70;;;16.10;99.90;;;;;;5090829;28;20883;-49
2022/08/22 07:05:02;;;;;;;6.77;5.20;;;16.20;99.90;;;;;;5091819;28;20486;-50
2022/08/22 07:07:29;;;;;;;5.07;4.47;;;16.00;99.90;;;;;;5091754;28;20932;-52
2022/08/22 07:09:56;;;;;;;4.07;3.67;;;15.90;99.90;;;;;;5090971;28;20443;-50
2022/08/22 07:12:29;;;;;;;5.80;5.03;;;15.70;99.90;;;;;;5091508;28;20505;-49
2022/08/22 07:15:01;;;;;;;7.23;4.73;;;15.60;99.90;;;;;;5091599;28;20539;-49
2022/08/22 07:17:31;;;;;;;5.40;4.33;;;15.40;99.90;;;;;;5091522;28;20861;-50
2022/08/22 07:20:04;;;;;;;4.88;4.43;;;15.50;99.90;;;;;;5090432;28;21022;-49
2022/08/22 07:22:35;;;;;;;6.05;4.00;;;15.70;99.90;;;;;;5091054;28;20199;-49
2022/08/22 07:25:09;;;;;;;5.43;4.17;;;15.80;99.90;;;;;;5090923;28;20250;-51
2022/08/22 07:27:59;;;;;;;10.33;4.57;;;16.00;99.90;;;;;;5089341;28;20443;-50
2022/08/22 07:30:36;;;;;;;7.50;3.83;;;16.00;99.90;;;;;;5090264;28;20471;-50
2022/08/22 07:33:10;;;;;;;6.80;4.20;;;16.00;99.90;;;;;;5090838;28;20510;-49
2022/08/22 07:35:46;;;;;;;11.33;4.07;;;16.00;99.90;;;;;;5090830;28;20438;-49
2022/08/22 07:38:23;;;;;;;5.17;4.00;;;15.80;99.90;;;;;;5090653;28;20463;-50
2022/08/22 07:41:00;;;;;;;9.47;4.10;;;15.80;99.90;;;;;;5089869;28;20943;-49
2022/08/22 07:43:31;;;;;;;7.33;4.30;;;15.80;99.90;;;;;;5090413;28;20533;-51
2022/08/22 07:46:04;;;;;;;6.87;4.13;;;16.00;99.90;;;;;;5090915;28;20451;-49
2022/08/22 07:48:35;;;;;;;4.03;3.63;;;16.00;99.90;;;;;;5090482;28;20432;-51
2022/08/22 07:51:07;;;;;;;4.67;3.87;;;16.10;99.90;;;;;;5090270;28;20443;-50
2022/08/22 07:53:40;;;;;;;4.70;3.33;;;16.20;99.90;;;;;;5090057;28;20455;-49
2022/08/22 07:56:13;;;;;;;4.70;3.40;;;16.30;99.90;;;;;;5090108;28;20435;-50
2022/08/22 07:58:42;;;;;;;4.53;3.80;;;16.30;99.90;;;;;;5089755;28;20540;-46
2022/08/22 08:01:15;;;;;;;9.10;4.80;;;16.50;99.90;;;;;;5088918;28;20443;-49
2022/08/22 08:03:47;;;;;;;8.57;4.35;;;16.50;99.90;;;;;;5090121;28;20853;-51
2022/08/22 08:06:16;;;;;;;7.13;4.47;;;16.60;99.90;;;;;;5090177;28;20262;-51
2022/08/22 08:08:44;;;;;;;12.83;5.20;;;16.80;99.90;;;;;;5089982;28;20497;-49
2022/08/22 08:11:15;;;;;;;8.07;5.30;;;16.80;99.90;;;;;;5089883;28;20858;-50
2022/08/22 08:13:45;;;;;;;60.08;10.30;;;16.70;99.90;;;;;;5089656;28;20466;-50
2022/08/22 08:16:18;;;;;;;13.97;5.43;;;16.80;99.90;;;;;;5090051;28;20274;-49
2022/08/22 08:18:48;;;;;;;4.13;3.83;;;16.70;99.90;;;;;;5089571;28;20544;-52
2022/08/22 08:21:25;;;;;;;4.63;4.17;;;16.70;99.90;;;;;;5089945;28;20715;-52
2022/08/22 08:23:54;;;;;;;3.80;3.50;;;16.80;99.90;;;;;;5089175;28;20444;-49
2022/08/22 08:26:28;;;;;;;6.63;4.43;;;16.80;99.90;;;;;;5088282;28;20544;-51
2022/08/22 08:28:57;;;;;;;13.83;4.70;;;16.60;99.90;;;;;;5089549;28;21065;-50
2022/08/22 08:31:30;;;;;;;5.17;3.87;;;16.40;99.90;;;;;;5089890;28;20427;-51
2022/08/22 08:34:02;;;;;;;4.33;3.27;;;16.40;99.90;;;;;;5089615;28;20458;-50
2022/08/22 08:36:44;;;;;;;6.60;3.83;;;16.70;99.90;;;;;;5089725;28;20436;-50
2022/08/22 08:39:19;;;;;;;4.47;3.57;;;16.90;99.90;;;;;;5088843;28;20475;-51
2022/08/22 08:42:18;;;;;;;5.67;4.20;;;16.90;99.90;;;;;;5089794;28;20450;-49
2022/08/22 08:45:04;;;;;;;4.20;3.80;;;16.80;99.90;;;;;;5086388;28;20479;-49
2022/08/22 08:48:04;;;;;;;4.40;4.00;;;16.80;99.90;;;;;;5089977;28;20448;-50
2022/08/22 08:50:45;;;;;;;11.33;3.90;;;17.10;99.90;;;;;;5054782;28;20442;-50
2022/08/22 08:53:44;;;;;;;4.53;3.37;;;17.50;99.90;;;;;;5089549;28;20524;-50
2022/08/22 08:56:23;;;;;;;5.43;4.33;;;17.70;99.90;;;;;;5089691;28;21053;-50
2022/08/22 08:59:00;;;;;;;4.67;4.00;;;17.60;99.90;;;;;;5088811;28;20473;-50
2022/08/22 09:01:52;;;;;;;6.40;5.73;;;17.60;99.90;;;;;;5087738;28;20463;-48
2022/08/22 09:04:42;;;;;;;7.73;4.00;;;17.60;99.90;;;;;;5078928;28;20512;-50
2022/08/22 09:07:33;;;;;;;6.27;4.00;;;17.50;99.90;;;;;;5089451;28;20424;-49
2022/08/22 09:10:31;;;;;;;4.37;3.90;;;17.50;99.90;;;;;;5089032;28;20532;-50
2022/08/22 09:13:21;;;;;;;4.33;3.93;;;17.70;99.90;;;;;;5082673;28;20733;-50
2022/08/22 09:16:05;;;;;;;4.50;3.93;;;17.60;99.90;;;;;;5089372;28;20460;-49
2022/08/22 09:19:17;;;;;;;4.50;4.10;;;17.60;99.90;;;;;;5089256;28;20467;-50
2022/08/22 09:22:24;;;;;;;4.65;3.97;;;17.70;99.90;;;;;;5075926;28;20608;-49
2022/08/22 09:25:17;;;;;;;11.53;5.23;;;17.70;99.90;;;;;;5089450;28;20312;-51
2022/08/22 09:27:51;;;;;;;8.60;4.60;;;17.70;99.90;;;;;;5087722;28;20442;-49
2022/08/22 09:30:21;;;;;;;16.83;5.23;;;17.80;99.90;;;;;;5088664;28;20436;-50
2022/08/22 09:32:57;;;;;;;14.30;5.43;;;17.80;99.90;;;;;;5089335;28;20509;-51
2022/08/22 09:35:33;;;;;;;11.50;5.10;;;17.80;99.90;;;;;;5090112;28;20438;-49
2022/08/22 09:38:38;;;;;;;4.50;3.60;;;17.90;99.90;;;;;;5092803;28;20220;-52
2022/08/22 09:41:22;;;;;;;7.13;4.00;;;18.00;99.90;;;;;;5051330;28;20681;-50
2022/08/22 09:43:59;;;;;;;8.30;4.43;;;18.00;99.90;;;;;;5092723;28;20450;-49
2022/08/22 09:46:32;;;;;;;4.85;3.90;;;18.20;99.90;;;;;;5092732;28;20485;-50
2022/08/22 09:49:04;;;;;;;6.10;4.00;;;18.20;99.90;;;;;;5092051;28;20689;-50
2022/08/22 09:51:38;;;;;;;4.45;3.80;;;18.40;99.90;;;;;;5092839;28;20531;-51
2022/08/22 09:54:22;;;;;;;10.40;4.50;;;18.30;99.90;;;;;;5092352;28;20694;-52
2022/08/22 09:57:02;;;;;;;5.70;4.20;;;18.50;99.90;;;;;;5092415;28;20500;-50
2022/08/22 09:59:44;;;;;;;3.90;3.23;;;18.60;99.90;;;;;;5091583;28;20475;-51
2022/08/22 10:02:24;;;;;;;4.10;3.70;;;18.60;99.90;;;;;;5093535;28;20475;-50
2022/08/22 10:04:59;;;;;;;4.53;3.60;;;18.70;99.90;;;;;;5091615;28;20459;-50
2022/08/22 10:07:57;;;;;;;3.73;3.40;;;18.90;99.90;;;;;;5090831;28;21222;-52
2022/08/22 10:10:39;;;;;;;4.87;3.50;;;19.00;99.90;;;;;;5086056;28;20428;-51
2022/08/22 10:13:16;;;;;;;4.40;4.00;;;19.20;99.90;;;;;;5115340;22;20489;-48
2022/08/22 10:15:53;;;;;;;18.03;12.57;;;19.20;99.90;;;;;;5051673;28;20477;-49
2022/08/22 10:18:32;;;;;;;13.88;6.93;;;19.30;99.90;;;;;;5052117;28;20725;-48
2022/08/22 10:21:09;;;;;;;4.63;4.23;;;19.40;99.90;;;;;;5051083;28;20202;-48
2022/08/22 10:23:42;;;;;;;11.37;5.47;;;19.50;99.90;;;;;;5049657;28;20510;-49
2022/08/22 10:26:22;;;;;;;6.73;5.33;;;19.60;99.90;;;;;;5040819;28;20918;-47
2022/08/22 10:28:56;;;;;;;4.10;3.70;;;19.70;99.90;;;;;;5037116;28;20446;-49
2022/08/22 10:31:30;;;;;;;5.00;3.90;;;19.40;99.90;;;;;;5045622;28;20510;-48
2022/08/22 10:34:07;;;;;;;7.20;4.07;;;19.30;99.90;;;;;;5045566;28;20989;-49
2022/08/22 10:36:44;;;;;;;7.40;4.40;;;19.70;99.90;;;;;;5043573;28;20445;-49
2022/08/22 10:39:18;;;;;;;7.93;4.67;;;19.90;99.90;;;;;;5042898;28;20548;-48
2022/08/22 10:42:15;;;;;;;9.30;5.40;;;20.10;99.90;;;;;;5044419;28;20446;-49
2022/08/22 10:44:53;;;;;;;6.33;4.77;;;20.10;99.90;;;;;;5042127;28;21052;-48
2022/08/22 10:47:25;;;;;;;8.00;4.70;;;20.00;99.90;;;;;;5039783;28;20805;-48
2022/08/22 10:49:56;;;;;;;8.40;5.83;;;20.00;99.90;;;;;;5041864;28;20506;-48
2022/08/22 10:52:26;;;;;;;6.83;3.97;;;20.10;99.90;;;;;;5038286;28;20445;-46
2022/08/22 10:55:00;;;;;;;4.40;4.00;;;19.90;99.90;;;;;;5048404;28;20467;-49
2022/08/22 10:57:35;;;;;;;5.40;4.57;;;20.20;99.90;;;;;;5033472;28;20226;-51
2022/08/22 11:00:13;;;;;;;11.73;5.60;;;20.30;99.90;;;;;;5029330;28;20473;-48
2022/08/22 11:03:02;;;;;;;4.70;4.10;;;20.40;99.90;;;;;;5029358;28;20201;-49
2022/08/22 11:05:36;;;;;;;5.60;3.83;;;20.70;99.90;;;;;;5031124;28;20450;-49
2022/08/22 11:08:30;;;;;;;4.50;4.00;;;20.50;99.90;;;;;;5030423;28;20456;-48
2022/08/22 11:11:18;;;;;;;4.73;4.33;;;20.50;99.90;;;;;;5030337;28;20487;-49
2022/08/22 11:14:15;;;;;;;4.50;4.10;;;20.40;99.90;;;;;;5030898;28;20478;-48
2022/08/22 11:16:56;;;;;;;7.70;4.00;;;20.40;99.90;;;;;;5010206;28;20461;-48
2022/08/22 11:19:40;;;;;;;4.33;3.87;;;20.50;99.90;;;;;;5030605;28;20485;-49
2022/08/22 11:22:21;;;;;;;5.57;3.90;;;20.70;99.90;;;;;;5031610;28;20500;-48
2022/08/22 11:25:26;;;;;;;5.17;4.67;;;20.80;99.90;;;;;;5031706;28;20474;-49
2022/08/22 11:28:45;;;;;;;5.90;5.10;;;20.80;99.90;;;;;;5030076;28;20929;-47
2022/08/22 11:31:23;;;;;;;5.07;4.57;;;21.10;99.90;;;;;;5014385;28;20984;-49
2022/08/22 11:33:56;;;;;;;6.00;3.83;;;21.20;99.90;;;;;;5031571;28;20281;-49
2022/08/22 11:36:34;;;;;;;15.23;6.30;;;21.20;99.90;;;;;;5031044;28;20845;-49
2022/08/22 11:39:12;;;;;;;14.40;10.03;;;21.30;99.90;;;;;;5030132;28;20567;-49
2022/08/22 11:41:45;;;;;;;11.80;8.90;;;21.50;99.90;;;;;;5030604;28;20685;-49
2022/08/22 11:44:17;;;;;;;9.50;7.10;;;21.60;99.90;;;;;;5030536;28;20458;-50
2022/08/22 11:46:46;;;;;;;11.03;8.70;;;21.60;99.90;;;;;;5030395;28;20901;-49
2022/08/22 11:49:32;;;;;;;5.30;4.70;;;21.60;99.90;;;;;;5029840;28;20568;-49
2022/08/22 11:52:12;;;;;;;14.00;7.57;;;21.60;99.90;;;;;;5030258;28;20964;-50
2022/08/22 11:55:09;;;;;;;7.57;5.67;;;21.80;99.90;;;;;;5030128;28;20503;-50
2022/08/22 11:57:38;;;;;;;5.37;4.80;;;21.80;99.90;;;;;;5029677;28;20430;-49
2022/08/22 12:00:18;;;;;;;4.47;4.03;;;21.70;99.90;;;;;;5028978;28;20478;-49
2022/08/22 12:03:06;;;;;;;6.00;4.50;;;21.60;99.90;;;;;;5030071;28;21005;-49
2022/08/22 12:05:39;;;;;;;5.47;3.97;;;21.90;99.90;;;;;;5021178;28;20450;-52
2022/08/22 12:08:13;;;;;;;8.50;4.00;;;22.30;99.90;;;;;;5029372;28;20430;-49
2022/08/22 12:10:48;;;;;;;6.20;5.60;;;22.70;99.90;;;;;;5029364;28;20948;-49
2022/08/22 12:13:24;;;;;;;4.88;4.00;;;22.60;99.90;;;;;;5029849;28;20477;-49
2022/08/22 12:16:03;;;;;;;4.77;3.00;;;23.10;99.90;;;;;;5029980;28;20199;-49
2022/08/22 12:18:50;;;;;;;5.83;2.67;;;23.20;99.90;;;;;;5030040;28;20472;-49
2022/08/22 12:21:36;;;;;;;4.80;3.00;;;23.10;97.80;;;;;;5029925;28;20947;-46
2022/08/22 12:24:20;;;;;;;5.87;2.50;;;23.00;99.90;;;;;;5029771;28;20461;-49
2022/08/22 12:27:01;;;;;;;7.70;2.30;;;23.10;99.10;;;;;;5028544;28;20453;-49
2022/08/22 12:29:38;;;;;;;5.93;2.90;;;23.40;99.70;;;;;;5029163;28;20442;-49
2022/08/22 12:32:47;;;;;;;5.83;2.13;;;23.20;95.40;;;;;;5029642;28;20199;-49
2022/08/22 12:35:30;;;;;;;4.60;1.90;;;23.40;92.00;;;;;;5018496;28;21048;-49
2022/08/22 12:38:10;;;;;;;5.93;2.37;;;23.40;94.90;;;;;;5029907;28;20541;-50
2022/08/22 12:40:52;;;;;;;5.30;2.60;;;23.40;95.80;;;;;;5028920;28;20480;-50
2022/08/22 12:43:36;;;;;;;5.67;2.67;;;23.20;92.70;;;;;;5029500;28;20474;-49
2022/08/22 12:46:16;;;;;;;2.57;1.63;;;23.30;93.30;;;;;;5029694;28;20445;-49
2022/08/22 12:49:22;;;;;;;7.10;2.37;;;23.40;93.20;;;;;;5029042;28;20434;-50
2022/08/22 12:52:01;;;;;;;8.85;5.10;;;23.50;93.30;;;;;;5025977;28;20462;-49
2022/08/22 12:54:58;;;;;;;4.40;3.10;;;23.60;94.00;;;;;;5029494;28;20313;-51
2022/08/22 12:57:37;;;;;;;11.50;3.63;;;23.40;92.90;;;;;;5029579;28;20450;-49
2022/08/22 13:00:18;;;;;;;4.47;2.60;;;23.40;94.60;;;;;;5028747;28;20548;-49
2022/08/22 13:02:45;;;;;;;5.07;3.13;;;23.20;94.80;;;;;;5029624;28;21001;-50
2022/08/22 13:05:19;;;;;;;4.40;2.77;;;23.40;95.30;;;;;;5029987;28;20466;-49
2022/08/22 13:07:53;;;;;;;4.70;2.90;;;23.40;93.00;;;;;;5029039;28;20916;-49
2022/08/22 13:10:42;;;;;;;5.83;2.67;;;23.50;95.40;;;;;;5031054;28;20444;-49
2022/08/22 13:13:13;;;;;;;6.37;4.20;;;23.50;96.80;;;;;;5033094;28;20458;-49
2022/08/22 13:15:44;;;;;;;11.80;9.30;;;23.50;94.30;;;;;;5033047;28;20430;-49
2022/08/22 13:18:18;;;;;;;4.57;3.10;;;23.60;97.30;;;;;;5033132;28;20476;-51
2022/08/22 13:20:49;;;;;;;4.33;2.40;;;23.40;93.60;;;;;;5031869;28;20528;-49
2022/08/22 13:23:22;;;;;;;5.00;2.67;;;23.50;92.30;;;;;;5033237;28;20570;-49
2022/08/22 13:26:07;;;;;;;6.70;3.13;;;23.70;93.50;;;;;;5031956;28;20472;-49
2022/08/22 13:28:41;;;;;;;4.40;2.40;;;23.60;93.30;;;;;;5033083;28;20473;-51
2022/08/22 13:31:09;;;;;;;2.67;2.47;;;23.60;95.20;;;;;;5032751;28;20544;-49
2022/08/22 13:33:45;;;;;;;3.47;2.53;;;23.80;96.00;;;;;;5032887;28;20489;-52
2022/08/22 13:36:16;;;;;;;4.93;2.90;;;23.70;93.80;;;;;;5033108;28;20768;-50
2022/08/22 13:38:51;;;;;;;3.08;2.20;;;23.50;93.80;;;;;;5032268;28;20917;-49
2022/08/22 13:41:24;;;;;;;4.23;2.23;;;23.60;91.40;;;;;;5032954;28;20265;-49
2022/08/22 13:44:15;;;;;;;3.00;2.53;;;23.70;91.70;;;;;;5032499;28;20455;-49
2022/08/22 13:46:42;;;;;;;2.53;2.20;;;23.90;94.30;;;;;;5030831;28;20979;-49
2022/08/22 13:49:17;;;;;;;3.03;2.27;;;23.80;93.00;;;;;;5031924;28;20453;-50